Time;durP1;ratioP1;P1;durP2;ratioP2;P2;SDS_P1;SDS_P2;PMS_P1;PMS_P2;Temp;Humidity;BMP_temperature;BMP_pressure;BME280_temperature;BME280_humidity;BME280_pressure;Samples;Min_cycle;Max_cycle;Signal;HPM_P1;HPM_P2
2023/08/10 00:01:00;;;;;;;4.10;1.50;;;;;;;10.61;94.96;100899.56;105246;1256;83440;-59
2023/08/10 00:03:35;;;;;;;9.00;2.00;;;;;;;10.56;94.84;100901.98;105211;1256;73357;-59
2023/08/10 00:06:02;;;;;;;2.20;1.70;;;;;;;10.53;94.89;100903.48;105250;1257;69170;-59
2023/08/10 00:08:29;;;;;;;4.10;1.80;;;;;;;10.48;94.83;100907.98;105342;1259;69130;-59
2023/08/10 00:10:56;;;;;;;2.90;1.70;;;;;;;10.44;95.01;100912.11;105257;1258;76067;-58
2023/08/10 00:13:23;;;;;;;4.10;1.60;;;;;;;10.41;95.18;100910.64;105258;1266;83508;-59
2023/08/10 00:15:50;;;;;;;4.60;1.60;;;;;;;10.38;95.33;100908.42;105203;1258;72672;-59
2023/08/10 00:18:17;;;;;;;3.90;1.60;;;;;;;10.38;95.57;100907.23;105237;1255;69146;-59
2023/08/10 00:20:44;;;;;;;4.20;1.60;;;;;;;10.38;95.85;100906.02;105120;1261;69271;-59
2023/08/10 00:23:11;;;;;;;2.30;1.50;;;;;;;10.39;96.15;100907.20;105311;1258;75889;-59
2023/08/10 00:25:38;;;;;;;3.80;1.90;;;;;;;10.39;96.27;100907.72;105199;1258;83095;-59
2023/08/10 00:28:05;;;;;;;1.90;1.50;;;;;;;10.38;96.26;100906.69;105227;1256;73650;-58
2023/08/10 00:30:32;;;;;;;4.40;1.70;;;;;;;10.36;96.29;100904.64;105120;1261;69389;-59
2023/08/10 00:32:59;;;;;;;3.50;1.30;;;;;;;10.36;96.37;100904.48;105229;1260;69112;-59
2023/08/10 00:35:26;;;;;;;3.40;1.20;;;;;;;10.35;96.39;100909.77;105238;1260;75505;-59
2023/08/10 00:37:53;;;;;;;3.50;1.60;;;;;;;10.32;96.58;100911.56;105067;1261;83375;-59
2023/08/10 00:40:20;;;;;;;3.10;2.00;;;;;;;10.33;96.87;100912.25;105109;1260;73861;-59
2023/08/10 00:42:47;;;;;;;6.00;2.10;;;;;;;10.38;97.60;100917.70;105169;1257;69215;-58
2023/08/10 00:45:13;;;;;;;3.10;1.90;;;;;;;10.43;97.84;100916.69;105098;1257;69242;-59
2023/08/10 00:47:41;;;;;;;5.40;2.50;;;;;;;10.47;97.95;100913.61;105079;1264;74611;-59
2023/08/10 00:50:09;;;;;;;5.70;2.50;;;;;;;10.51;98.21;100909.83;105131;1260;83353;-59
2023/08/10 00:52:36;;;;;;;3.90;2.40;;;;;;;10.53;97.90;100912.75;105160;1260;73815;-59
2023/08/10 00:55:04;;;;;;;2.90;2.20;;;;;;;10.52;98.08;100909.79;105115;1261;69256;-59
2023/08/10 00:57:31;;;;;;;3.70;2.70;;;;;;;10.54;97.99;100908.70;105272;1260;69161;-59
2023/08/10 00:59:58;;;;;;;4.50;2.10;;;;;;;10.56;98.31;100909.69;105217;1260;74519;-61
2023/08/10 01:02:25;;;;;;;3.40;2.00;;;;;;;10.58;98.32;100913.12;105148;1262;83013;-60
2023/08/10 01:04:52;;;;;;;4.80;2.40;;;;;;;10.58;98.30;100914.70;105102;1260;73863;-60
2023/08/10 01:07:28;;;;;;;6.00;2.90;;;;;;;10.58;98.14;100917.67;105100;1263;69279;-60
2023/08/10 01:10:37;;;;;;;5.00;1.90;;;;;;;10.56;98.08;100924.70;105266;1268;69125;-60
2023/08/10 01:13:14;;;;;;;6.80;2.10;;;;;;;10.54;97.96;100930.55;104704;1263;74872;-59
2023/08/10 01:15:52;;;;;;;3.30;2.10;;;;;;;10.52;98.20;100932.33;104777;1263;82618;-60
2023/08/10 01:18:23;;;;;;;5.20;2.10;;;;;;;10.52;98.30;100932.34;104811;1266;73703;-60
2023/08/10 01:20:51;;;;;;;3.60;1.90;;;;;;;10.52;98.39;100934.27;104735;1265;69216;-60
2023/08/10 01:23:41;;;;;;;6.20;2.30;;;;;;;10.51;98.40;100934.29;104768;1268;69326;-61
2023/08/10 01:26:08;;;;;;;3.90;2.10;;;;;;;10.52;98.80;100934.62;104848;1265;74645;-61
2023/08/10 01:28:36;;;;;;;4.20;2.10;;;;;;;10.50;98.71;100936.92;104754;1267;83353;-60
2023/08/10 01:31:03;;;;;;;3.90;2.10;;;;;;;10.48;98.53;100938.73;104787;1263;73603;-60
2023/08/10 01:33:30;;;;;;;5.00;2.20;;;;;;;10.44;98.46;100937.98;104745;1267;69090;-58
2023/08/10 01:35:57;;;;;;;3.50;1.80;;;;;;;10.40;98.46;100939.12;104819;1275;69249;-58
2023/08/10 01:38:24;;;;;;;6.40;2.00;;;;;;;10.38;98.65;100937.09;104748;1267;74553;-58
2023/08/10 01:40:52;;;;;;;3.90;2.20;;;;;;;10.39;98.97;100937.07;104790;1266;83720;-58
2023/08/10 01:43:19;;;;;;;3.30;1.80;;;;;;;10.37;98.65;100939.92;104896;1270;73805;-58
2023/08/10 01:45:52;;;;;;;3.40;1.70;;;;;;;10.33;98.62;100938.81;105287;1260;69087;-58
2023/08/10 01:48:21;;;;;;;4.90;2.00;;;;;;;10.27;98.42;100938.23;105272;1259;69237;-58
2023/08/10 01:50:49;;;;;;;5.20;1.90;;;;;;;10.24;98.56;100937.80;105122;1262;74641;-58
2023/08/10 01:53:20;;;;;;;3.30;1.70;;;;;;;10.20;98.62;100938.94;105301;1261;81423;-58
2023/08/10 01:55:47;;;;;;;3.70;1.70;;;;;;;10.17;98.69;100933.78;105236;1257;72549;-58
2023/08/10 01:58:14;;;;;;;7.90;2.30;;;;;;;10.15;98.63;100936.30;105314;1258;69079;-58
2023/08/10 02:00:41;;;;;;;4.50;1.70;;;;;;;10.11;98.70;100933.95;105049;1262;69173;-58
2023/08/10 02:03:08;;;;;;;6.30;2.20;;;;;;;10.11;98.95;100934.48;105261;1257;75634;-58
2023/08/10 02:05:36;;;;;;;6.40;1.80;;;;;;;10.07;98.90;100931.61;105143;1261;83279;-58
2023/08/10 02:08:03;;;;;;;6.20;1.50;;;;;;;10.03;98.72;100933.27;105283;1261;73656;-58
2023/08/10 02:10:30;;;;;;;4.10;1.80;;;;;;;9.99;98.65;100938.98;105301;1259;69075;-58
2023/08/10 02:12:57;;;;;;;3.90;1.70;;;;;;;9.94;98.52;100938.93;105286;1259;69113;-58
2023/08/10 02:15:24;;;;;;;3.50;1.70;;;;;;;9.90;98.55;100938.16;105116;1258;75658;-58
2023/08/10 02:17:51;;;;;;;2.70;1.60;;;;;;;9.84;98.45;100938.48;105282;1260;82625;-58
2023/08/10 02:20:19;;;;;;;4.50;2.10;;;;;;;9.80;98.64;100940.84;105258;1261;73570;-58
2023/08/10 02:22:48;;;;;;;3.50;1.60;;;;;;;9.82;99.45;100943.77;105253;1255;69130;-58
2023/08/10 02:25:16;;;;;;;7.00;1.90;;;;;;;9.84;99.49;100949.66;105130;1261;69126;-58
2023/08/10 02:27:44;;;;;;;3.60;1.70;;;;;;;9.83;99.37;100948.80;105378;1260;76548;-59
2023/08/10 02:30:11;;;;;;;4.90;1.80;;;;;;;9.80;99.44;100945.20;105179;1258;82347;-59
2023/08/10 02:32:39;;;;;;;4.30;2.10;;;;;;;9.77;99.40;100944.94;105159;1257;72669;-59
2023/08/10 02:35:09;;;;;;;4.00;2.20;;;;;;;9.74;99.17;100944.50;105144;1259;69146;-59
2023/08/10 02:37:36;;;;;;;5.70;2.60;;;;;;;9.66;98.70;100946.98;105321;1258;69185;-59
2023/08/10 02:40:04;;;;;;;5.70;2.20;;;;;;;9.58;98.58;100953.44;105176;1263;75548;-60
2023/08/10 02:42:31;;;;;;;4.60;1.80;;;;;;;9.53;98.55;100956.52;105302;1258;83541;-60
2023/08/10 02:44:58;;;;;;;5.80;2.10;;;;;;;9.47;98.56;100955.44;105076;1264;73616;-60
2023/08/10 02:47:25;;;;;;;4.50;1.80;;;;;;;9.41;98.40;100961.67;105231;1259;69152;-59
2023/08/10 02:49:52;;;;;;;3.60;2.10;;;;;;;9.36;98.48;100957.27;105333;1259;69530;-60
2023/08/10 02:52:20;;;;;;;4.00;1.80;;;;;;;9.32;98.85;100960.34;105291;1259;75904;-60
2023/08/10 02:54:47;;;;;;;5.80;1.80;;;;;;;9.30;98.90;100968.03;105215;1260;83498;-60
2023/08/10 02:57:14;;;;;;;4.50;1.80;;;;;;;9.32;99.56;100966.95;105150;1260;73677;-60
2023/08/10 02:59:41;;;;;;;3.60;1.80;;;;;;;9.34;99.49;100967.09;105241;1260;69216;-60
2023/08/10 03:02:08;;;;;;;3.90;1.70;;;;;;;9.30;99.36;100962.65;105286;1262;69164;-60
2023/08/10 03:04:35;;;;;;;4.10;1.90;;;;;;;9.28;99.53;100967.55;105267;1269;74496;-60
2023/08/10 03:07:02;;;;;;;4.90;2.00;;;;;;;9.23;99.18;100969.27;105239;1260;83201;-60
2023/08/10 03:09:29;;;;;;;4.30;1.70;;;;;;;9.21;99.47;100967.73;105097;1260;73673;-60
2023/08/10 03:11:56;;;;;;;3.10;1.80;;;;;;;9.16;99.36;100966.96;105141;1257;69050;-58
2023/08/10 03:14:27;;;;;;;4.80;1.80;;;;;;;9.14;99.80;100961.77;105150;1260;69113;-59
2023/08/10 03:16:53;;;;;;;3.80;1.70;;;;;;;9.12;99.63;100959.55;105163;1256;74531;-59
2023/08/10 03:19:20;;;;;;;2.00;1.30;;;;;;;9.10;99.82;100960.30;105142;1258;83362;-60
2023/08/10 03:21:49;;;;;;;4.20;1.70;;;;;;;9.08;99.66;100968.69;105186;1258;72635;-59
2023/08/10 03:24:17;;;;;;;5.60;1.60;;;;;;;9.07;99.79;100970.83;105261;1257;69084;-59
2023/08/10 03:26:44;;;;;;;3.90;1.80;;;;;;;9.04;99.70;100975.08;105288;1258;69187;-59
2023/08/10 03:29:11;;;;;;;2.00;1.40;;;;;;;9.03;99.87;100980.30;105240;1260;74656;-58
2023/08/10 03:31:38;;;;;;;4.30;1.90;;;;;;;9.02;99.89;100986.80;105353;1259;82508;-59
2023/08/10 03:34:07;;;;;;;3.80;1.50;;;;;;;9.00;99.98;100989.45;105290;1259;74015;-59
2023/08/10 03:36:35;;;;;;;3.90;1.90;;;;;;;8.97;99.96;100993.52;105254;1261;69119;-59
2023/08/10 03:39:02;;;;;;;4.80;1.70;;;;;;;8.97;100.00;100997.02;105321;1261;69664;-59
2023/08/10 03:41:29;;;;;;;6.40;2.20;;;;;;;8.97;100.00;100999.98;105122;1260;74590;-60
2023/08/10 03:43:56;;;;;;;2.70;1.90;;;;;;;8.97;100.00;101003.10;105149;1261;83708;-59
2023/08/10 03:46:25;;;;;;;5.60;2.00;;;;;;;8.96;100.00;101006.27;105295;1256;72659;-59
2023/08/10 03:48:52;;;;;;;6.20;2.40;;;;;;;8.97;100.00;101005.20;105083;1256;69211;-59
2023/08/10 03:51:20;;;;;;;6.60;2.40;;;;;;;8.97;100.00;101007.29;105094;1260;69225;-59
2023/08/10 03:53:47;;;;;;;3.60;1.80;;;;;;;8.98;100.00;101009.71;105239;1257;75755;-59
2023/08/10 03:56:14;;;;;;;4.80;2.40;;;;;;;9.02;100.00;101011.89;105116;1257;83311;-59
2023/08/10 03:58:41;;;;;;;3.40;2.00;;;;;;;9.04;100.00;101015.02;105341;1257;73974;-59
2023/08/10 04:01:09;;;;;;;3.30;2.10;;;;;;;9.04;100.00;101013.25;105222;1257;69023;-58
2023/08/10 04:03:36;;;;;;;4.80;2.20;;;;;;;9.05;100.00;101015.50;105330;1258;69125;-57
2023/08/10 04:06:04;;;;;;;4.40;2.20;;;;;;;9.07;100.00;101013.20;105198;1258;75816;-57
2023/08/10 04:08:31;;;;;;;5.00;2.90;;;;;;;9.08;100.00;101011.23;105324;1260;83486;-53
2023/08/10 04:10:59;;;;;;;5.50;2.20;;;;;;;9.10;100.00;101013.98;107027;1257;73946;-55
2023/08/10 04:13:26;;;;;;;5.00;2.60;;;;;;;9.17;100.00;101011.40;105237;1257;69201;-53
2023/08/10 04:15:53;;;;;;;4.20;2.30;;;;;;;9.25;100.00;101017.16;105163;1260;69308;-56
2023/08/10 04:18:20;;;;;;;4.20;2.70;;;;;;;9.34;100.00;101017.66;105480;1259;75608;-57
2023/08/10 04:20:47;;;;;;;4.00;2.40;;;;;;;9.44;100.00;101020.42;105188;1261;84026;-58
2023/08/10 04:23:14;;;;;;;2.80;1.90;;;;;;;9.49;100.00;101019.23;105215;1258;72683;-59
2023/08/10 04:25:41;;;;;;;4.80;2.30;;;;;;;9.58;100.00;101020.77;105348;1261;69118;-59
2023/08/10 04:28:08;;;;;;;3.80;2.20;;;;;;;9.62;100.00;101022.09;105347;1260;69144;-59
2023/08/10 04:30:34;;;;;;;3.80;2.40;;;;;;;9.67;100.00;101022.49;105236;1260;75037;-59
2023/08/10 04:33:03;;;;;;;5.40;2.50;;;;;;;9.72;100.00;101019.08;105263;1259;83661;-60
2023/08/10 04:35:31;;;;;;;3.90;2.30;;;;;;;9.74;100.00;101020.23;105432;1260;73856;-60
2023/08/10 04:37:58;;;;;;;5.40;2.50;;;;;;;9.82;100.00;101018.65;105284;1258;69203;-59
2023/08/10 04:40:25;;;;;;;6.80;2.70;;;;;;;9.91;100.00;101024.55;105169;1259;69310;-58
2023/08/10 04:42:52;;;;;;;4.20;2.30;;;;;;;9.97;100.00;101024.92;105436;1259;75423;-59
2023/08/10 04:45:19;;;;;;;3.00;2.30;;;;;;;10.02;100.00;101028.46;105248;1260;82407;-59
2023/08/10 04:47:46;;;;;;;5.80;2.30;;;;;;;10.10;100.00;101028.61;105243;1257;73877;-58
2023/08/10 04:50:13;;;;;;;4.40;2.40;;;;;;;10.19;100.00;101031.88;105228;1256;69130;-58
2023/08/10 04:52:40;;;;;;;4.20;2.60;;;;;;;10.29;100.00;101029.73;105312;1259;69190;-58
2023/08/10 04:55:09;;;;;;;3.40;2.30;;;;;;;10.35;100.00;101030.80;105337;1257;75910;-58
2023/08/10 04:57:36;;;;;;;3.60;2.60;;;;;;;10.42;100.00;101034.63;105149;1261;82442;-59
2023/08/10 05:00:09;;;;;;;6.10;2.60;;;;;;;10.49;100.00;101037.63;105057;1257;73865;-60
2023/08/10 05:02:38;;;;;;;4.20;2.30;;;;;;;10.56;100.00;101037.08;107469;1257;69835;-59
2023/08/10 05:05:06;;;;;;;4.00;2.40;;;;;;;10.62;100.00;101039.17;105432;1258;69060;-59
2023/08/10 05:07:33;;;;;;;6.50;3.00;;;;;;;10.70;100.00;101037.40;105365;1255;73524;-59
2023/08/10 05:10:04;;;;;;;3.50;2.30;;;;;;;10.77;100.00;101044.54;105236;1260;83381;-59
2023/08/10 05:12:34;;;;;;;5.50;2.50;;;;;;;10.84;100.00;101048.38;105377;1258;73669;-59
2023/08/10 05:15:01;;;;;;;8.00;2.70;;;;;;;10.90;100.00;101045.07;105311;1260;69175;-59
2023/08/10 05:17:27;;;;;;;5.30;2.30;;;;;;;10.99;100.00;101043.59;105287;1259;69206;-59
2023/08/10 05:19:55;;;;;;;4.10;3.10;;;;;;;11.09;100.00;101047.83;105275;1257;75679;-59
2023/08/10 05:22:23;;;;;;;5.00;2.30;;;;;;;11.20;100.00;101050.14;105340;1261;82106;-59
2023/08/10 05:24:50;;;;;;;4.80;2.40;;;;;;;11.32;100.00;101049.98;105341;1258;73684;-59
2023/08/10 05:27:17;;;;;;;4.20;2.10;;;;;;;11.46;100.00;101049.37;105346;1260;69196;-59
2023/08/10 05:29:44;;;;;;;5.00;2.00;;;;;;;11.61;100.00;101051.36;105152;1260;69214;-59
2023/08/10 05:32:11;;;;;;;3.60;2.10;;;;;;;11.75;100.00;101050.58;105146;1259;75876;-59
2023/08/10 05:34:38;;;;;;;3.30;2.00;;;;;;;11.88;100.00;101046.88;105179;1259;82463;-59
2023/08/10 05:37:05;;;;;;;5.50;2.20;;;;;;;11.98;100.00;101046.91;105195;1260;73898;-59
2023/08/10 05:39:32;;;;;;;5.10;2.30;;;;;;;12.06;100.00;101043.32;105198;1258;69291;-60
2023/08/10 05:41:58;;;;;;;2.50;2.00;;;;;;;12.13;100.00;101045.53;105217;1255;69276;-59
2023/08/10 05:44:25;;;;;;;4.20;1.90;;;;;;;12.20;100.00;101047.91;105234;1258;74534;-59
2023/08/10 05:46:52;;;;;;;3.50;2.20;;;;;;;12.26;100.00;101047.18;105129;1258;82498;-59
2023/08/10 05:49:19;;;;;;;4.20;2.20;;;;;;;12.31;100.00;101047.38;105198;1257;72704;-59
2023/08/10 05:51:46;;;;;;;7.10;2.50;;;;;;;12.35;100.00;101046.02;105327;1256;69169;-59
2023/08/10 05:54:13;;;;;;;3.40;2.20;;;;;;;12.41;100.00;101049.85;105129;1255;69636;-59
2023/08/10 05:56:40;;;;;;;5.80;2.40;;;;;;;12.47;100.00;101050.35;105258;1258;74561;-59
2023/08/10 05:59:07;;;;;;;3.50;2.10;;;;;;;12.54;100.00;101049.74;105291;1259;82542;-59
2023/08/10 06:01:34;;;;;;;4.10;2.20;;;;;;;12.60;100.00;101048.98;105362;1257;74055;-59
2023/08/10 06:04:02;;;;;;;4.40;2.40;;;;;;;12.67;100.00;101048.21;105307;1257;69183;-59
2023/08/10 06:06:30;;;;;;;3.60;2.10;;;;;;;12.74;100.00;101055.16;105347;1258;69192;-59
2023/08/10 06:08:57;;;;;;;4.70;2.10;;;;;;;12.81;100.00;101052.48;105286;1257;75674;-59
2023/08/10 06:11:24;;;;;;;7.00;2.50;;;;;;;12.86;100.00;101052.27;105273;1260;82507;-59
2023/08/10 06:14:04;;;;;;;4.60;2.00;;;;;;;12.92;100.00;101052.60;105154;1260;72498;-59
2023/08/10 06:16:31;;;;;;;6.10;2.30;;;;;;;12.96;100.00;101052.27;105236;1258;69083;-59
2023/08/10 06:18:58;;;;;;;4.30;2.20;;;;;;;13.02;100.00;101051.20;105295;1259;69178;-59
2023/08/10 06:21:25;;;;;;;3.20;1.90;;;;;;;13.09;100.00;101049.52;105132;1258;75837;-59
2023/08/10 06:23:52;;;;;;;4.70;2.30;;;;;;;13.17;100.00;101050.65;105235;1259;83102;-59
2023/08/10 06:26:19;;;;;;;3.90;2.20;;;;;;;13.25;100.00;101049.48;105113;1257;72683;-59
2023/08/10 06:28:46;;;;;;;5.40;2.50;;;;;;;13.33;100.00;101052.17;105210;1257;69135;-59
2023/08/10 06:31:13;;;;;;;4.90;2.00;;;;;;;13.43;100.00;101050.88;105320;1258;69339;-61
2023/08/10 06:33:41;;;;;;;3.40;1.80;;;;;;;13.54;100.00;101050.48;105155;1258;74703;-59
2023/08/10 06:36:10;;;;;;;5.20;2.20;;;;;;;13.65;100.00;101054.96;105326;1258;83645;-60
2023/08/10 06:38:37;;;;;;;2.70;1.90;;;;;;;13.73;100.00;101051.48;105231;1260;72784;-59
2023/08/10 06:41:04;;;;;;;5.60;2.00;;;;;;;13.81;100.00;101055.02;105139;1255;69124;-58
2023/08/10 06:43:31;;;;;;;4.90;1.80;;;;;;;13.90;100.00;101053.45;105270;1257;69193;-60
2023/08/10 06:45:59;;;;;;;4.50;2.20;;;;;;;13.98;100.00;101050.84;105136;1260;73520;-59
2023/08/10 06:48:26;;;;;;;2.60;1.30;;;;;;;14.06;100.00;101053.13;105294;1258;82477;-58
2023/08/10 06:50:52;;;;;;;4.10;1.50;;;;;;;14.15;100.00;101051.02;105286;1256;73838;-58
2023/08/10 06:53:21;;;;;;;4.20;1.70;;;;;;;14.27;100.00;101054.72;105370;1256;69161;-58
2023/08/10 06:55:50;;;;;;;5.30;1.50;;;;;;;14.40;100.00;101052.25;105276;1256;69206;-59
2023/08/10 06:58:18;;;;;;;2.90;1.80;;;;;;;14.54;100.00;101054.85;105339;1257;75696;-58
2023/08/10 07:00:48;;;;;;;2.90;1.50;;;;;;;14.65;100.00;101051.73;104791;1266;83273;-58
2023/08/10 07:03:16;;;;;;;2.70;1.60;;;;;;;14.79;100.00;101052.20;104707;1265;73893;-59
2023/08/10 07:05:43;;;;;;;2.90;1.70;;;;;;;14.94;100.00;101054.69;104780;1267;69264;-58
2023/08/10 07:08:10;;;;;;;3.60;1.40;;;;;;;15.07;100.00;101060.08;104768;1266;69286;-58
2023/08/10 07:10:37;;;;;;;3.30;1.70;;;;;;;15.21;100.00;101059.27;104785;1264;74790;-58
2023/08/10 07:13:04;;;;;;;3.30;1.60;;;;;;;15.32;100.00;101060.32;104761;1266;82375;-58
2023/08/10 07:15:32;;;;;;;5.50;2.40;;;;;;;15.46;100.00;101061.63;104776;1261;73360;-59
2023/08/10 07:18:00;;;;;;;4.80;1.80;;;;;;;15.59;100.00;101059.81;104786;1261;69377;-58
2023/08/10 07:20:30;;;;;;;2.90;2.00;;;;;;;15.73;100.00;101060.21;105219;1260;69175;-59
2023/08/10 07:22:57;;;;;;;5.20;2.10;;;;;;;15.87;100.00;101066.56;105371;1257;75282;-59
2023/08/10 07:25:24;;;;;;;4.00;1.90;;;;;;;16.01;100.00;101068.52;105285;1259;83451;-59
2023/08/10 07:27:51;;;;;;;4.10;1.80;;;;;;;16.17;100.00;101071.85;105295;1256;73667;-59
2023/08/10 07:30:18;;;;;;;4.30;1.70;;;;;;;16.34;100.00;101071.51;105332;1256;69471;-59
2023/08/10 07:32:45;;;;;;;3.10;1.40;;;;;;;16.50;99.73;101067.88;105294;1258;69196;-58
2023/08/10 07:35:13;;;;;;;4.40;1.40;;;;;;;16.62;99.25;101069.52;105301;1257;75794;-59
2023/08/10 07:37:40;;;;;;;3.00;1.40;;;;;;;16.77;98.85;101070.02;105273;1257;82442;-59
2023/08/10 07:40:11;;;;;;;3.80;1.60;;;;;;;16.89;98.19;101068.89;105263;1258;73485;-59
2023/08/10 07:42:38;;;;;;;3.70;1.60;;;;;;;17.01;97.96;101067.02;105298;1258;69196;-58
2023/08/10 07:45:09;;;;;;;2.40;1.10;;;;;;;17.14;97.25;101071.44;105159;1258;216175;-59
2023/08/10 07:47:37;;;;;;;3.20;1.40;;;;;;;17.24;96.20;101073.35;105314;1256;75907;-59
2023/08/10 07:50:05;;;;;;;4.30;1.10;;;;;;;17.33;95.37;101076.22;105309;1258;83301;-59
2023/08/10 07:52:32;;;;;;;2.60;1.10;;;;;;;17.39;94.33;101076.95;105272;1256;73733;-59
2023/08/10 07:54:59;;;;;;;1.50;1.00;;;;;;;17.43;92.95;101080.62;105353;1257;69074;-59
2023/08/10 07:57:26;;;;;;;4.00;1.50;;;;;;;17.49;91.96;101084.90;105416;1256;69145;-58
2023/08/10 07:59:53;;;;;;;3.10;1.10;;;;;;;17.59;91.20;101086.25;105427;1255;75608;-59
2023/08/10 08:02:20;;;;;;;1.70;1.00;;;;;;;17.71;90.27;101086.16;105412;1258;83205;-58
2023/08/10 08:04:47;;;;;;;2.10;1.10;;;;;;;17.79;89.29;101087.14;105342;1259;73867;-58
2023/08/10 08:07:18;;;;;;;2.20;0.90;;;;;;;17.87;88.02;101088.27;105356;1256;69308;-58
2023/08/10 08:09:45;;;;;;;2.80;1.20;;;;;;;17.93;87.37;101082.83;105336;1259;69190;-59
2023/08/10 08:12:11;;;;;;;1.70;1.00;;;;;;;18.02;86.81;101085.30;105294;1258;76081;-59
2023/08/10 08:14:38;;;;;;;3.10;1.10;;;;;;;18.09;86.06;101083.15;105157;1257;83382;-59
2023/08/10 08:17:05;;;;;;;2.20;1.10;;;;;;;18.13;85.40;101081.36;105166;1258;71605;-57
2023/08/10 08:19:34;;;;;;;1.80;1.00;;;;;;;18.15;84.71;101079.77;105424;1258;69041;-57
2023/08/10 08:22:01;;;;;;;1.60;0.90;;;;;;;18.19;83.95;101080.42;105464;1255;69044;-59
2023/08/10 08:24:28;;;;;;;2.10;1.00;;;;;;;18.25;83.03;101077.60;105423;1255;75670;-58
2023/08/10 08:26:56;;;;;;;3.50;0.80;;;;;;;18.32;82.32;101076.69;105180;1256;81393;-58
2023/08/10 08:29:23;;;;;;;3.50;1.00;;;;;;;18.39;81.55;101078.20;105194;1256;72877;-58
2023/08/10 08:31:50;;;;;;;3.80;0.80;;;;;;;18.46;80.70;101076.41;105243;1256;69212;-58
2023/08/10 08:34:18;;;;;;;4.10;0.80;;;;;;;18.54;80.32;101073.63;105296;1260;69255;-58
2023/08/10 08:36:46;;;;;;;3.90;1.20;;;;;;;18.63;79.21;101072.89;105215;1256;74553;-58
2023/08/10 08:39:12;;;;;;;2.10;0.80;;;;;;;18.67;78.07;101072.83;105230;1258;83543;-58
2023/08/10 08:41:41;;;;;;;2.80;1.10;;;;;;;18.73;77.81;101069.11;105152;1256;73554;-58
2023/08/10 08:44:08;;;;;;;2.50;0.90;;;;;;;18.89;78.05;101069.23;105190;1256;69162;-58
2023/08/10 08:46:42;;;;;;;2.80;1.10;;;;;;;19.09;77.38;101071.39;105220;1256;69056;-58
2023/08/10 08:49:09;;;;;;;3.70;1.00;;;;;;;19.16;75.85;101070.56;105345;1256;75588;-58
2023/08/10 08:51:37;;;;;;;2.40;1.00;;;;;;;19.24;75.23;101065.62;105144;1260;83240;-57
2023/08/10 08:54:04;;;;;;;3.90;1.00;;;;;;;19.38;74.85;101065.48;105128;1256;72718;-58
2023/08/10 08:56:31;;;;;;;3.20;1.30;;;;;;;19.52;74.46;101064.91;105100;1256;69315;-58
2023/08/10 08:59:00;;;;;;;1.80;1.00;;;;;;;19.69;73.86;101058.01;105452;1260;69260;-57
2023/08/10 09:01:27;;;;;;;4.40;0.80;;;;;;;19.90;73.11;101056.12;105279;1256;75933;-59
2023/08/10 09:03:54;;;;;;;2.20;0.80;;;;;;;20.10;72.38;101055.36;105229;1258;84507;-58
2023/08/10 09:06:21;;;;;;;2.80;0.90;;;;;;;20.24;71.69;101055.24;105314;1260;73838;-59
2023/08/10 09:08:48;;;;;;;2.00;1.10;;;;;;;20.32;70.55;101058.52;105196;1257;69128;-58
2023/08/10 09:11:15;;;;;;;2.20;0.70;;;;;;;20.38;70.05;101057.16;105149;1256;69144;-58
2023/08/10 09:13:42;;;;;;;1.80;0.70;;;;;;;20.45;69.02;101058.66;105282;1258;75732;-58
2023/08/10 09:16:11;;;;;;;1.60;0.80;;;;;;;20.58;68.49;101058.85;105109;1261;83187;-58
2023/08/10 09:18:40;;;;;;;2.40;1.00;;;;;;;20.67;67.62;101059.48;105370;1257;72614;-58
2023/08/10 09:21:18;;;;;;;4.50;0.80;;;;;;;20.70;66.84;101064.42;105341;1256;69196;-58
2023/08/10 09:23:46;;;;;;;5.70;1.00;;;;;;;20.80;66.22;101063.23;105277;1260;69172;-58
2023/08/10 09:26:18;;;;;;;2.40;1.10;;;;;;;20.92;65.87;101061.33;105422;1256;75858;-58
2023/08/10 09:28:47;;;;;;;2.40;0.90;;;;;;;21.00;65.16;101058.96;105469;1256;83180;-58
2023/08/10 09:31:22;;;;;;;3.50;0.80;;;;;;;21.02;64.33;101058.87;105325;1258;72575;-58
2023/08/10 09:33:53;;;;;;;4.30;0.80;;;;;;;21.05;63.93;101063.80;105317;1259;69215;-58
2023/08/10 09:36:26;;;;;;;2.20;0.80;;;;;;;21.04;63.20;101061.04;105361;1259;69120;-58
2023/08/10 09:38:54;;;;;;;2.70;1.10;;;;;;;21.04;62.86;101061.70;105395;1255;75645;-58
2023/08/10 09:41:23;;;;;;;2.50;0.90;;;;;;;21.04;62.84;101059.98;105366;1258;83416;-58
2023/08/10 09:43:51;;;;;;;1.70;0.70;;;;;;;21.05;62.72;101060.75;105374;1257;72488;-57
2023/08/10 09:46:18;;;;;;;1.40;0.80;;;;;;;21.06;62.78;101063.54;105215;1256;69210;-58
2023/08/10 09:48:48;;;;;;;2.30;1.20;;;;;;;21.01;62.18;101062.83;105222;1258;69170;-57
2023/08/10 09:51:16;;;;;;;1.30;0.70;;;;;;;20.93;61.83;101062.16;105179;1257;75805;-58
2023/08/10 09:53:43;;;;;;;3.70;1.30;;;;;;;20.87;61.69;101059.15;105286;1257;84132;-58
2023/08/10 09:56:10;;;;;;;1.80;0.80;;;;;;;20.84;61.15;101058.31;105140;1256;73774;-57
2023/08/10 09:58:39;;;;;;;2.10;0.80;;;;;;;20.83;61.13;101063.88;105289;1256;69021;-58
2023/08/10 10:01:07;;;;;;;3.70;0.90;;;;;;;20.82;60.60;101062.57;105407;1257;69272;-59
2023/08/10 10:03:35;;;;;;;3.70;0.90;;;;;;;20.82;60.33;101061.45;105476;1257;75525;-59
2023/08/10 10:06:03;;;;;;;1.50;0.70;;;;;;;20.90;60.55;101061.11;105477;1257;83320;-59
2023/08/10 10:08:35;;;;;;;5.50;0.90;;;;;;;21.00;60.23;101059.55;105401;1257;73628;-59
2023/08/10 10:11:08;;;;;;;1.70;0.70;;;;;;;21.07;60.22;101059.05;105429;1254;69168;-58
2023/08/10 10:13:35;;;;;;;4.50;1.20;;;;;;;21.17;60.12;101057.80;105431;1257;69072;-58
2023/08/10 10:16:02;;;;;;;2.80;1.00;;;;;;;21.24;59.37;101058.16;105457;1257;75874;-59
2023/08/10 10:18:30;;;;;;;3.10;0.90;;;;;;;21.29;58.72;101053.02;105466;1257;83241;-58
2023/08/10 10:20:57;;;;;;;2.20;0.80;;;;;;;21.35;58.51;101051.55;105355;1254;72784;-58
2023/08/10 10:23:24;;;;;;;2.70;0.80;;;;;;;21.41;58.09;101048.32;105298;1254;69825;-58
2023/08/10 10:25:58;;;;;;;4.40;0.70;;;;;;;21.42;57.61;101047.83;105416;1253;69101;-59
2023/08/10 10:28:27;;;;;;;1.00;0.60;;;;;;;21.66;57.35;101047.90;105455;1254;74161;-58
2023/08/10 10:30:56;;;;;;;4.70;0.80;;;;;;;22.11;57.40;101041.01;105458;1254;82537;-59
2023/08/10 10:33:25;;;;;;;2.30;0.60;;;;;;;22.66;57.23;101043.25;105428;1258;73820;-59
2023/08/10 10:36:25;;;;;;;3.20;0.70;;;;;;;22.92;55.74;101040.48;105450;1254;69082;-59
2023/08/10 10:39:11;;;;;;;2.20;0.70;;;;;;;23.16;54.56;101039.65;105117;1257;69111;-59
2023/08/10 10:41:42;;;;;;;2.80;0.80;;;;;;;23.25;53.79;101036.63;105329;1253;75699;-59
2023/08/10 10:44:09;;;;;;;4.20;0.80;;;;;;;23.55;53.72;101033.34;105462;1254;83285;-59
2023/08/10 10:46:38;;;;;;;2.40;0.60;;;;;;;23.93;53.64;101031.14;105368;1254;72681;-58
2023/08/10 10:49:07;;;;;;;2.10;0.80;;;;;;;24.00;52.72;101034.78;105465;1253;69099;-59
2023/08/10 10:51:52;;;;;;;2.10;0.90;;;;;;;23.63;51.50;101035.66;105491;1257;69713;-59
2023/08/10 10:54:19;;;;;;;1.30;0.70;;;;;;;23.73;51.51;101030.45;105430;1254;75625;-59
2023/08/10 10:56:46;;;;;;;2.10;0.80;;;;;;;24.14;51.79;101023.27;105422;1254;82436;-59
2023/08/10 10:59:14;;;;;;;1.30;0.60;;;;;;;24.68;51.84;101019.79;105400;1254;73585;-59
2023/08/10 11:01:46;;;;;;;4.50;0.90;;;;;;;25.14;51.45;101020.41;105318;1254;69108;-59
2023/08/10 11:04:13;;;;;;;3.50;0.90;;;;;;;25.55;50.47;101017.84;105353;1254;69634;-59
2023/08/10 11:06:41;;;;;;;1.50;0.70;;;;;;;25.91;50.15;101013.31;105449;1254;75426;-59
2023/08/10 11:09:08;;;;;;;2.40;0.90;;;;;;;26.37;49.93;101011.55;105384;1254;82825;-59
2023/08/10 11:11:35;;;;;;;1.50;0.70;;;;;;;26.86;49.50;101015.89;105437;1254;73588;-59
2023/08/10 11:14:03;;;;;;;2.00;0.80;;;;;;;27.07;47.84;101012.03;105383;1254;69016;-58
2023/08/10 11:16:43;;;;;;;5.80;1.00;;;;;;;27.29;47.52;101008.50;105371;1257;69203;-59
2023/08/10 11:19:13;;;;;;;1.90;0.60;;;;;;;27.62;46.72;101008.48;105430;1254;75654;-59
2023/08/10 11:21:48;;;;;;;1.80;0.60;;;;;;;27.91;45.78;100997.61;105462;1254;82453;-59